Latest Weather Observations for Burnie Port

IDT60801

Issued at 9:01 pm EDT Thursday 29 January 2015 (issued every 30 minutes, with the page automatically refreshed every 10 minutes)

About weather observations | Map of weather stations | Latest weather observations for TAS | Other Formats
Station Details ID: 091344 Name: BURNIE NTC AWS Lat: -41.05 Lon: 145.91 Height: 0.0 m
Data from the previous 72 hours. | See also: Recent months for locations in Tasmania
Date/Time
EDT
Temp
°C
App
Temp
°C
Dew
Point
Rel
Hum
%
Delta-T
°C
Wind Press
QNH
hPa
Press
MSL
hPa
Rain
since 9 am
mm
Dir
 
Spd
km/h
Gust
km/h
Spd
kts
Gust
kts
29/09:00pm 17.3 - - - - WNW 9 13 5 7 1019.1 1019.1 -
29/08:30pm 17.1 - - - - NW 15 19 8 10 1018.9 1018.9 -
29/08:00pm 17.5 - - - - WNW 13 17 7 9 1019.3 1019.3 -
29/07:30pm 17.0 - - - - NW 19 22 10 12 1019.2 1019.2 -
29/07:00pm 17.1 - - - - NW 20 24 11 13 1019.1 1019.1 -
29/06:30pm 17.3 - - - - NW 22 26 12 14 1019.0 1019.0 -
29/06:00pm 17.4 - - - - NW 22 26 12 14 1019.2 1019.2 -
29/05:30pm 17.3 - - - - NW 20 24 11 13 1019.7 1019.7 -
29/05:00pm 17.4 - - - - NW 19 24 10 13 1019.9 1019.9 -
29/04:30pm 17.2 - - - - NNW 17 20 9 11 1020.1 1020.1 -
29/04:00pm 17.4 - - - - N 17 19 9 10 1020.1 1020.1 -
29/03:30pm 17.5 - - - - NNW 15 19 8 10 1020.3 1020.3 -
29/03:00pm 17.6 - - - - N 15 19 8 10 1020.4 1020.4 -
29/02:30pm 17.7 - - - - NNE 15 17 8 9 1020.6 1020.6 -
29/02:00pm 17.6 - - - - NE 19 22 10 12 1020.8 1020.8 -
29/01:30pm 17.6 - - - - ENE 9 19 5 10 1021.2 1021.2 -
29/01:00pm 17.4 - - - - ENE 11 20 6 11 1021.4 1021.4 -
29/12:30pm 17.1 - - - - E 22 28 12 15 1021.7 1021.7 -
29/12:00pm 16.8 - - - - E 19 24 10 13 1022.0 1022.0 -
29/11:30am 16.6 - - - - ENE 15 26 8 14 1022.1 1022.1 -
29/11:00am 16.1 - - - - E 20 28 11 15 1022.3 1022.3 -
29/10:30am 16.6 - - - - E 17 28 9 15 1022.4 1022.4 -
29/10:00am 16.3 - - - - ESE 19 26 10 14 1022.6 1022.6 -
29/09:30am 16.1 - - - - E 6 13 3 7 1022.7 1022.7 -
29/09:00am 15.2 - - - - SSE 13 17 7 9 1022.6 1022.6 -
29/08:30am 14.2 - - - - S 13 19 7 10 1022.7 1022.7 -
29/08:00am 13.3 - - - - S 9 13 5 7 1022.6 1022.6 -
29/07:30am 12.7 - - - - S 11 17 6 9 1022.5 1022.5 -
29/07:00am 12.1 - - - - S 17 22 9 12 1022.1 1022.1 -
29/06:30am 12.3 - - - - S 15 20 8 11 1022.0 1022.0 -
29/06:00am 12.4 - - - - S 17 24 9 13 1021.9 1021.9 -
29/05:30am 12.5 - - - - S 20 24 11 13 1021.8 1021.8 -
29/05:00am 12.4 - - - - S 24 30 13 16 1021.7 1021.7 -
29/04:30am 12.4 - - - - S 19 22 10 12 1021.8 1021.8 -
29/04:00am 12.4 - - - - S 19 22 10 12 1021.9 1021.9 -
29/03:30am 12.3 - - - - S 22 24 12 13 1021.9 1021.9 -
29/03:00am 12.9 - - - - S 19 22 10 12 1022.2 1022.2 -
29/02:30am 13.2 - - - - S 22 26 12 14 1022.2 1022.2 -
29/02:00am 13.3 - - - - S 19 24 10 13 1022.5 1022.5 -
29/01:30am 14.0 - - - - SE 15 28 8 15 1022.6 1022.6 -
29/01:00am 14.4 - - - - SE 22 32 12 17 1022.8 1022.8 -
29/12:30am 14.5 - - - - ESE 22 28 12 15 1023.0 1023.0 -
29/12:00am 15.1 - - - - SE 26 32 14 17 1023.0 1023.0 -
 
Date/Time
EDT
Temp
°C
App
Temp
°C
Dew
Point
Rel
Hum
%
Delta-T
°C
Wind Press
QNH
hPa
Press
MSL
hPa
Rain
since 9 am
mm
Dir
 
Spd
km/h
Gust
km/h
Spd
kts
Gust
kts
28/11:30pm 15.7 - - - - ESE 33 39 18 21 1023.0 1023.0 -
28/11:00pm 16.0 - - - - ESE 33 39 18 21 1023.1 1023.1 -
28/10:30pm 16.4 - - - - ESE 37 44 20 24 1023.1 1023.1 -
28/10:00pm 16.9 - - - - E 33 43 18 23 1023.0 1023.0 -
28/09:30pm 17.3 - - - - ESE 22 44 12 24 1022.4 1022.4 -
28/09:29pm 17.3 - - - - SE 20 43 11 23 1022.5 1022.5 -
28/09:00pm 17.0 - - - - NNW 4 6 2 3 1022.1 1022.1 -
28/08:30pm 17.1 - - - - NW 9 13 5 7 1021.7 1021.7 -
28/08:00pm 17.2 - - - - NW 11 15 6 8 1021.5 1021.5 -
28/07:30pm 17.3 - - - - NW 13 17 7 9 1021.4 1021.4 -
28/07:00pm 17.4 - - - - NW 15 20 8 11 1021.2 1021.2 -
28/06:30pm 17.3 - - - - NW 17 22 9 12 1021.0 1021.0 -
28/06:00pm 17.3 - - - - NW 17 20 9 11 1020.8 1020.8 -
28/05:30pm 17.1 - - - - NW 17 20 9 11 1020.7 1020.7 -
28/05:00pm 17.1 - - - - NW 19 22 10 12 1020.7 1020.7 -
28/04:30pm 17.0 - - - - NW 19 22 10 12 1020.8 1020.8 -
28/04:00pm 17.0 - - - - NNW 17 20 9 11 1021.0 1021.0 -
28/03:30pm 16.9 - - - - NNW 15 19 8 10 1021.1 1021.1 -
28/03:00pm 17.0 - - - - NNW 15 17 8 9 1021.3 1021.3 -
28/02:30pm 17.0 - - - - N 15 19 8 10 1021.3 1021.3 -
28/02:00pm 17.1 - - - - NNE 13 15 7 8 1021.3 1021.3 -
28/01:30pm 16.9 - - - - NNE 15 19 8 10 1021.6 1021.6 -
28/01:00pm 16.8 - - - - NE 13 20 7 11 1021.8 1021.8 -
28/12:30pm 16.4 - - - - NNE 13 15 7 8 1021.9 1021.9 -
28/12:00pm 16.2 - - - - E 9 19 5 10 1021.9 1021.9 -
28/11:30am 15.7 - - - - ENE 11 19 6 10 1022.1 1022.1 -
28/11:00am 15.2 - - - - E 13 19 7 10 1022.2 1022.2 -
28/10:30am 14.6 - - - - E 15 20 8 11 1022.2 1022.2 -
28/10:00am 14.2 - - - - E 13 19 7 10 1022.4 1022.4 -
28/09:30am 13.9 - - - - E 13 17 7 9 1022.4 1022.4 -
28/09:00am 13.7 - - - - E 17 20 9 11 1022.3 1022.3 -
28/08:30am 13.6 - - - - SE 7 11 4 6 1022.0 1022.0 -
28/08:00am 13.1 - - - - SSE 9 13 5 7 1021.6 1021.6 -
28/07:30am 12.2 - - - - SSE 13 17 7 9 1021.1 1021.1 -
28/07:00am 12.0 - - - - SSE 13 17 7 9 1020.7 1020.7 -
28/06:30am 13.0 - - - - SSE 9 13 5 7 1020.5 1020.5 -
28/06:00am 12.9 - - - - S 9 13 5 7 1020.3 1020.3 -
28/05:30am 13.1 - - - - SSW 9 13 5 7 1020.0 1020.0 -
28/05:00am 13.3 - - - - S 9 13 5 7 1019.9 1019.9 -
28/04:30am 13.6 - - - - S 11 17 6 9 1019.8 1019.8 -
28/04:00am 14.0 - - - - S 11 17 6 9 1019.7 1019.7 -
28/03:30am 14.1 - - - - S 13 20 7 11 1019.6 1019.6 -
28/03:00am 14.2 - - - - S 13 15 7 8 1019.7 1019.7 -
28/02:30am 15.2 - - - - SSE 15 20 8 11 1019.7 1019.7 -
28/02:00am 14.7 - - - - S 13 15 7 8 1019.7 1019.7 -
28/01:30am 16.0 - - - - SE 22 28 12 15 1019.6 1019.6 -
28/01:00am 15.7 - - - - SSE 17 24 9 13 1019.6 1019.6 -
28/12:30am 16.1 - - - - SSE 15 26 8 14 1019.5 1019.5 -
28/12:00am 16.1 - - - - SSE 19 26 10 14 1019.3 1019.3 -
 
Date/Time
EDT
Temp
°C
App
Temp
°C
Dew
Point
Rel
Hum
%
Delta-T
°C
Wind Press
QNH
hPa
Press
MSL
hPa
Rain
since 9 am
mm
Dir
 
Spd
km/h
Gust
km/h
Spd
kts
Gust
kts
27/11:30pm 16.6 - - - - ESE 28 35 15 19 1019.0 1019.0 -
27/11:00pm 16.6 - - - - ESE 28 32 15 17 1018.9 1018.9 -
27/10:30pm 16.8 - - - - ESE 22 28 12 15 1018.8 1018.8 -
27/10:00pm 16.7 - - - - ESE 20 24 11 13 1018.4 1018.4 -
27/09:30pm 17.0 - - - - E 20 26 11 14 1017.8 1017.8 -
27/09:00pm 17.4 - - - - E 13 15 7 8 1017.2 1017.2 -
27/08:30pm 17.5 - - - - E 11 17 6 9 1016.6 1016.6 -
27/08:00pm 17.7 - - - - NNE 4 6 2 3 1016.0 1016.0 -
27/07:30pm 17.8 - - - - NNW 7 7 4 4 1015.7 1015.7 -
27/07:00pm 17.6 - - - - N 7 9 4 5 1015.5 1015.5 -
27/06:30pm 17.6 - - - - N 7 9 4 5 1015.2 1015.2 -
27/06:00pm 17.4 - - - - NNW 11 13 6 7 1015.1 1015.1 -
27/05:30pm 17.3 - - - - NNW 11 13 6 7 1015.3 1015.3 -
27/05:00pm 17.2 - - - - NW 13 15 7 8 1015.3 1015.3 -
27/04:30pm 17.0 - - - - NNW 13 15 7 8 1015.3 1015.3 -
27/04:00pm 16.8 - - - - N 13 15 7 8 1015.3 1015.3 -
27/03:30pm 16.6 - - - - N 11 15 6 8 1015.6 1015.6 -
27/03:00pm 16.4 - - - - N 13 15 7 8 1015.6 1015.6 -
27/02:30pm 16.2 - - - - N 13 17 7 9 1015.7 1015.7 -
27/02:00pm 16.1 - - - - N 11 13 6 7 1015.8 1015.8 -
27/01:30pm 16.1 - - - - N 13 15 7 8 1015.9 1015.9 -
27/01:00pm 16.1 - - - - N 13 17 7 9 1016.1 1016.1 -
27/12:30pm 16.0 - - - - NNE 15 17 8 9 1016.2 1016.2 -
27/12:00pm 15.8 - - - - NE 15 20 8 11 1016.2 1016.2 -
27/11:30am 15.6 - - - - NE 15 22 8 12 1016.3 1016.3 -
27/11:00am 16.0 - - - - ENE 9 15 5 8 1016.5 1016.5 -
27/10:30am 16.0 - - - - SSE 11 19 6 10 1016.5 1016.5 -
27/10:00am 15.8 - - - - SE 15 24 8 13 1016.4 1016.4 -
27/09:30am 15.4 - - - - S 15 24 8 13 1016.4 1016.4 -
27/09:00am 14.7 - - - - S 20 24 11 13 1016.3 1016.3 -
27/08:30am 14.1 - - - - S 17 20 9 11 1016.3 1016.3 -

Other Formats:

Comma delimited format used in spreadsheet applications
http://www.bom.gov.au/fwo/IDT60801/IDT60801.95963.axf

JavaScript Object Notation format (JSON) in row-major order
http://www.bom.gov.au/fwo/IDT60801/IDT60801.95963.json